Time;durP1;ratioP1;P1;durP2;ratioP2;P2;SDS_P1;SDS_P2;PMS_P1;PMS_P2;Temp;Humidity;BMP_temperature;BMP_pressure;BME280_temperature;BME280_humidity;BME280_pressure;Samples;Min_cycle;Max_cycle;Signal;HPM_P1;HPM_P2
2022/08/17 00:00:54;;;;;;;1.58;0.98;;;19.70;99.90;;;;;;5024767;28;20440;-81
2022/08/17 00:03:27;;;;;;;2.00;0.98;;;19.60;99.90;;;;;;5044221;28;20060;-81
2022/08/17 00:06:05;;;;;;;2.15;1.30;;;19.60;99.90;;;;;;5041159;28;20042;-82
2022/08/17 00:08:36;;;;;;;1.63;1.15;;;19.60;99.90;;;;;;5026799;28;20030;-82
2022/08/17 00:11:09;;;;;;;1.80;1.27;;;19.60;99.90;;;;;;5031349;28;20388;-81
2022/08/17 00:13:40;;;;;;;2.30;1.17;;;19.50;99.90;;;;;;5030934;28;20076;-82
2022/08/17 00:16:12;;;;;;;1.95;1.20;;;19.50;99.90;;;;;;5027209;28;20046;-81
2022/08/17 00:18:40;;;;;;;2.13;1.08;;;19.50;99.90;;;;;;5048590;28;20053;-81
2022/08/17 00:21:08;;;;;;;1.70;1.02;;;19.50;99.90;;;;;;5034338;28;20565;-81
2022/08/17 00:23:35;;;;;;;1.90;1.15;;;19.40;99.90;;;;;;5046836;28;20124;-82
2022/08/17 00:26:02;;;;;;;1.63;1.20;;;19.40;99.90;;;;;;5004309;28;20129;-82
2022/08/17 00:28:29;;;;;;;1.65;1.13;;;19.40;99.90;;;;;;5024721;28;20688;-81
2022/08/17 00:30:56;;;;;;;1.55;1.00;;;19.40;99.90;;;;;;5047404;28;20041;-82
2022/08/17 00:33:26;;;;;;;1.80;1.30;;;19.40;99.90;;;;;;5027592;28;20065;-81
2022/08/17 00:35:54;;;;;;;3.33;1.55;;;19.40;99.90;;;;;;5047060;28;20044;-81
2022/08/17 00:38:24;;;;;;;1.60;1.10;;;19.30;99.90;;;;;;5021373;28;20048;-81
2022/08/17 00:41:02;;;;;;;1.77;1.23;;;19.30;99.90;;;;;;5023772;28;20072;-82
2022/08/17 00:43:39;;;;;;;1.42;0.98;;;19.30;99.90;;;;;;5049606;28;20072;-81
2022/08/17 00:46:15;;;;;;;1.70;1.10;;;19.30;99.90;;;;;;5049829;28;20487;-82
2022/08/17 00:48:43;;;;;;;1.80;1.13;;;19.30;99.90;;;;;;5050304;28;20410;-81
2022/08/17 00:51:15;;;;;;;1.52;1.02;;;19.30;99.90;;;;;;5038883;28;20046;-82
2022/08/17 00:53:49;;;;;;;1.25;0.80;;;19.30;99.90;;;;;;5042634;28;20514;-81
2022/08/17 00:56:24;;;;;;;1.73;1.00;;;19.30;99.90;;;;;;5039485;28;20041;-81
2022/08/17 00:58:53;;;;;;;;;;;19.30;99.90;;;;;;5031279;28;20050;-82
2022/08/17 01:01:20;;;;;;;1.13;0.80;;;19.20;99.90;;;;;;5011012;28;19963;-81
2022/08/17 01:03:48;;;;;;;1.33;0.90;;;19.20;99.90;;;;;;5004184;28;20435;-82
2022/08/17 01:06:15;;;;;;;1.20;0.82;;;19.10;99.90;;;;;;5018298;28;20116;-82
2022/08/17 01:08:42;;;;;;;2.15;1.27;;;19.10;99.90;;;;;;5007916;28;20113;-82
2022/08/17 01:11:09;;;;;;;1.30;0.85;;;19.20;99.90;;;;;;5019071;28;20042;-81
2022/08/17 01:13:39;;;;;;;1.50;1.08;;;19.10;99.90;;;;;;4981694;28;20464;-81
2022/08/17 01:16:23;;;;;;;3.42;1.23;;;19.10;99.90;;;;;;5018199;28;20052;-82
2022/08/17 01:18:53;;;;;;;1.25;0.85;;;19.10;99.90;;;;;;5023881;28;20388;-82
2022/08/17 01:21:26;;;;;;;1.83;1.23;;;19.00;99.90;;;;;;5049461;28;20127;-82
2022/08/17 01:23:53;;;;;;;1.38;0.95;;;19.00;99.90;;;;;;5003125;28;20498;-81
2022/08/17 01:26:21;;;;;;;2.63;1.63;;;19.00;99.90;;;;;;4990513;28;20033;-82
2022/08/17 01:28:47;;;;;;;2.88;1.40;;;19.10;99.90;;;;;;5029885;28;20397;-81
2022/08/17 01:31:15;;;;;;;2.45;1.35;;;19.00;99.90;;;;;;5029729;28;20037;-82
2022/08/17 01:33:42;;;;;;;1.40;0.90;;;19.00;99.90;;;;;;5028560;28;20037;-81
2022/08/17 01:36:09;;;;;;;1.70;1.27;;;19.00;99.90;;;;;;4998481;28;20129;-82
2022/08/17 01:38:37;;;;;;;1.58;1.08;;;19.00;99.90;;;;;;5004076;28;20120;-81
2022/08/17 01:41:11;;;;;;;2.15;1.50;;;19.00;99.90;;;;;;4999608;28;20034;-81
2022/08/17 01:43:49;;;;;;;1.58;1.00;;;19.00;99.90;;;;;;5009829;28;20042;-81
2022/08/17 01:46:23;;;;;;;1.92;1.25;;;19.00;99.90;;;;;;5011800;28;20041;-81
2022/08/17 01:48:50;;;;;;;0.82;0.73;;;19.00;99.90;;;;;;5021281;28;20046;-82
2022/08/17 01:51:17;;;;;;;1.00;0.77;;;18.90;99.90;;;;;;4995709;28;20438;-82
2022/08/17 01:53:52;;;;;;;1.05;0.68;;;19.00;99.90;;;;;;5032969;28;20064;-81
2022/08/17 01:56:23;;;;;;;1.55;1.10;;;18.90;99.90;;;;;;5018062;28;20046;-81
2022/08/17 01:58:51;;;;;;;1.63;1.10;;;18.90;99.90;;;;;;5009776;28;20053;-82
2022/08/17 02:01:21;;;;;;;2.13;1.20;;;18.90;99.90;;;;;;5008556;28;20155;-81
2022/08/17 02:03:48;;;;;;;1.25;0.88;;;18.80;99.90;;;;;;5010389;28;20045;-81
2022/08/17 02:06:14;;;;;;;1.88;0.98;;;18.80;99.90;;;;;;4996993;28;20088;-82
2022/08/17 02:08:47;;;;;;;1.42;1.00;;;18.90;99.90;;;;;;4985408;28;20057;-82
2022/08/17 02:11:18;;;;;;;1.92;1.30;;;18.80;99.90;;;;;;5022410;28;20049;-81
2022/08/17 02:13:48;;;;;;;2.05;1.15;;;18.80;99.90;;;;;;5014633;28;20088;-81
2022/08/17 02:16:15;;;;;;;2.42;1.25;;;18.80;99.90;;;;;;5033699;28;20054;-82
2022/08/17 02:18:41;;;;;;;1.80;1.30;;;18.70;99.90;;;;;;5008112;28;20464;-82
2022/08/17 02:21:08;;;;;;;1.52;1.17;;;18.70;99.90;;;;;;5004510;28;20069;-81
2022/08/17 02:23:39;;;;;;;1.70;1.10;;;18.70;99.90;;;;;;5025179;28;20045;-81
2022/08/17 02:26:06;;;;;;;2.28;1.42;;;18.60;99.90;;;;;;5026880;28;20428;-81
2022/08/17 02:28:33;;;;;;;1.83;1.10;;;18.60;99.90;;;;;;5043429;28;20380;-82
2022/08/17 02:31:08;;;;;;;1.38;0.80;;;18.60;99.90;;;;;;5026707;28;20088;-82
2022/08/17 02:33:35;;;;;;;;;;;18.60;99.90;;;;;;5029581;28;20033;-82
2022/08/17 02:36:04;;;;;;;1.92;1.20;;;18.50;99.90;;;;;;5040455;28;20008;-82
2022/08/17 02:38:31;;;;;;;1.55;1.05;;;18.50;99.90;;;;;;5020354;28;20047;-81
2022/08/17 02:40:58;;;;;;;2.35;1.58;;;18.50;99.90;;;;;;5017488;28;20180;-82
2022/08/17 02:43:26;;;;;;;1.35;0.98;;;18.50;99.90;;;;;;5021935;28;20100;-81
2022/08/17 02:45:53;;;;;;;2.65;1.27;;;18.50;99.90;;;;;;5020346;28;20041;-81
2022/08/17 02:48:21;;;;;;;1.67;1.05;;;18.40;99.90;;;;;;5051927;28;20092;-81
2022/08/17 02:50:48;;;;;;;1.92;1.27;;;18.40;99.90;;;;;;5047413;28;20038;-82
2022/08/17 02:53:15;;;;;;;1.30;1.00;;;18.40;99.90;;;;;;4984649;28;20041;-82
2022/08/17 02:55:42;;;;;;;1.50;1.05;;;18.40;99.90;;;;;;5013692;28;20045;-82
2022/08/17 02:58:10;;;;;;;1.70;1.10;;;18.40;99.90;;;;;;5046733;28;20054;-82
2022/08/17 03:00:40;;;;;;;1.27;0.95;;;18.40;99.90;;;;;;5012731;28;20411;-82
2022/08/17 03:03:09;;;;;;;1.70;1.25;;;18.40;99.90;;;;;;5051807;28;20041;-82
2022/08/17 03:05:38;;;;;;;1.48;0.85;;;18.40;99.90;;;;;;5030619;28;20406;-82
2022/08/17 03:08:05;;;;;;;1.27;0.80;;;18.40;99.90;;;;;;5033227;28;20059;-81
2022/08/17 03:10:32;;;;;;;1.73;1.30;;;18.30;99.90;;;;;;5050433;28;20041;-82
2022/08/17 03:13:00;;;;;;;1.52;1.10;;;18.30;99.90;;;;;;5037334;28;20038;-82
2022/08/17 03:15:30;;;;;;;1.50;1.10;;;18.40;99.90;;;;;;5020696;28;20072;-82
2022/08/17 03:17:58;;;;;;;1.05;0.80;;;18.30;99.90;;;;;;5034305;28;20116;-81
2022/08/17 03:20:26;;;;;;;1.30;0.85;;;18.30;99.90;;;;;;5029343;28;20125;-82
2022/08/17 03:22:55;;;;;;;1.77;0.95;;;18.30;99.90;;;;;;5048411;28;20037;-81
2022/08/17 03:25:26;;;;;;;1.55;0.93;;;18.30;99.90;;;;;;5057403;28;20406;-82
2022/08/17 03:27:53;;;;;;;1.58;0.80;;;18.30;99.90;;;;;;5039291;28;20048;-82
2022/08/17 03:30:21;;;;;;;2.33;1.10;;;18.30;99.90;;;;;;5025342;28;20034;-81
2022/08/17 03:32:50;;;;;;;2.47;1.25;;;18.30;99.90;;;;;;5025409;28;20033;-81
2022/08/17 03:35:20;;;;;;;1.48;1.05;;;18.30;99.90;;;;;;5022477;28;20034;-81
2022/08/17 03:37:47;;;;;;;1.73;1.20;;;18.30;99.90;;;;;;5011716;28;20505;-81
2022/08/17 03:40:14;;;;;;;1.52;1.00;;;18.30;99.90;;;;;;5066679;28;20095;-82
2022/08/17 03:42:41;;;;;;;1.40;1.10;;;18.30;99.90;;;;;;5018820;28;20037;-82
2022/08/17 03:45:12;;;;;;;2.03;1.13;;;18.30;99.90;;;;;;5011283;28;20046;-82
2022/08/17 03:58:50;;;;;;;1.17;0.98;;;18.20;99.90;;;;;;5046380;28;20038;-81
2022/08/17 04:01:16;;;;;;;1.45;0.95;;;18.20;99.90;;;;;;4993338;28;20407;-82
2022/08/17 04:03:43;;;;;;;1.58;1.02;;;18.20;99.90;;;;;;5008735;28;20045;-82
2022/08/17 04:06:10;;;;;;;0.60;0.57;;;18.20;99.90;;;;;;4985497;28;20038;-82
2022/08/17 04:08:36;;;;;;;1.58;1.10;;;18.20;99.90;;;;;;5020652;28;20048;-80
2022/08/17 04:11:03;;;;;;;1.17;0.77;;;18.10;99.90;;;;;;5022130;28;20041;-81
2022/08/17 04:13:30;;;;;;;1.45;0.93;;;18.10;99.90;;;;;;5001436;28;20052;-81
2022/08/17 04:15:58;;;;;;;1.45;1.02;;;18.20;99.90;;;;;;5023519;28;20041;-81
2022/08/17 04:18:25;;;;;;;1.45;1.08;;;18.20;99.90;;;;;;5029569;28;20406;-82
2022/08/17 04:20:52;;;;;;;1.83;1.30;;;18.20;99.90;;;;;;4983173;28;20125;-82
2022/08/17 04:23:18;;;;;;;1.33;0.80;;;18.20;99.90;;;;;;4998654;28;20530;-82
2022/08/17 04:25:48;;;;;;;2.05;1.45;;;18.20;99.90;;;;;;5030749;28;20394;-82
2022/08/17 04:28:17;;;;;;;1.50;0.98;;;18.20;99.90;;;;;;4998960;28;20044;-81
2022/08/17 04:30:46;;;;;;;1.63;1.30;;;18.20;99.90;;;;;;5027498;28;20037;-82
2022/08/17 04:33:22;;;;;;;1.88;1.23;;;18.20;99.90;;;;;;5007778;28;20042;-82
2022/08/17 04:35:57;;;;;;;1.48;1.00;;;18.30;99.90;;;;;;5033634;28;20641;-82
2022/08/17 04:38:26;;;;;;;1.48;1.05;;;18.30;99.90;;;;;;5026154;28;20065;-81
2022/08/17 04:43:41;;;;;;;1.48;0.95;;;18.30;99.90;;;;;;5039725;28;20049;-81
2022/08/17 04:46:11;;;;;;;1.83;1.15;;;18.30;99.90;;;;;;5039809;28;20039;-82
2022/08/17 04:48:41;;;;;;;0.88;0.77;;;18.40;99.90;;;;;;5032952;28;20044;-82
2022/08/17 04:51:17;;;;;;;0.88;0.70;;;18.30;99.90;;;;;;5011138;28;20045;-81
2022/08/17 04:53:49;;;;;;;2.20;1.35;;;18.30;99.90;;;;;;5037487;28;20045;-82
2022/08/17 04:56:16;;;;;;;1.05;0.75;;;18.30;99.90;;;;;;5013567;28;20458;-82
2022/08/17 04:58:46;;;;;;;1.45;0.85;;;18.30;99.90;;;;;;5023738;28;20045;-82
2022/08/17 05:01:14;;;;;;;0.95;0.63;;;18.30;99.90;;;;;;4996661;28;20096;-82
2022/08/17 05:03:42;;;;;;;1.65;0.98;;;18.40;99.90;;;;;;4963444;28;20046;-81
2022/08/17 05:06:09;;;;;;;1.17;0.95;;;18.40;99.90;;;;;;5012860;28;20042;-82
2022/08/17 05:08:36;;;;;;;1.50;0.90;;;18.40;99.90;;;;;;4990618;28;20042;-82
2022/08/17 05:11:04;;;;;;;1.20;0.90;;;18.40;99.90;;;;;;4982011;28;20041;-81
2022/08/17 05:13:30;;;;;;;1.10;0.70;;;18.40;99.90;;;;;;4983925;28;20041;-81
2022/08/17 05:16:02;;;;;;;0.98;0.73;;;18.40;99.90;;;;;;5010495;28;20129;-81
2022/08/17 05:18:30;;;;;;;0.90;0.73;;;18.40;99.90;;;;;;5026398;28;20136;-81
2022/08/17 05:20:58;;;;;;;1.30;0.93;;;18.40;99.90;;;;;;5010025;28;20034;-81
2022/08/17 05:23:26;;;;;;;3.35;1.10;;;18.30;99.90;;;;;;4989693;28;20046;-81
2022/08/17 05:25:55;;;;;;;1.48;1.08;;;18.30;99.90;;;;;;4981942;28;20037;-81
2022/08/17 05:28:28;;;;;;;1.00;0.60;;;18.30;99.90;;;;;;4975351;28;20392;-81
2022/08/17 05:30:57;;;;;;;1.48;0.90;;;18.30;99.90;;;;;;4999516;28;20049;-81
2022/08/17 05:33:37;;;;;;;1.38;1.05;;;18.40;99.90;;;;;;5010050;28;20117;-81
2022/08/17 05:36:05;;;;;;;1.17;0.80;;;18.40;99.90;;;;;;5010094;28;20134;-81
2022/08/17 05:38:32;;;;;;;1.08;0.75;;;18.40;99.90;;;;;;4994073;28;20443;-81
2022/08/17 05:41:02;;;;;;;1.60;0.98;;;18.40;99.90;;;;;;4993987;28;20053;-80
2022/08/17 05:43:31;;;;;;;1.33;0.98;;;18.50;99.90;;;;;;5008411;28;20046;-81
2022/08/17 05:46:09;;;;;;;1.25;0.65;;;18.40;99.90;;;;;;4999521;28;20117;-82
2022/08/17 05:48:45;;;;;;;0.80;0.80;;;18.50;99.90;;;;;;4991774;28;20049;-81
2022/08/17 05:51:31;;;;;;;1.15;0.82;;;18.50;99.90;;;;;;5009237;28;20031;-82
2022/08/17 05:54:12;;;;;;;1.52;0.80;;;18.50;99.90;;;;;;5009410;28;20049;-82
2022/08/17 05:56:42;;;;;;;1.27;0.77;;;18.50;99.90;;;;;;4999928;28;20133;-81
2022/08/17 05:59:23;;;;;;;1.00;0.73;;;18.40;99.90;;;;;;4997419;28;20078;-80
2022/08/17 06:02:28;;;;;;;0.80;0.57;;;18.40;99.90;;;;;;4973717;28;20428;-81
2022/08/17 06:05:23;;;;;;;1.55;0.88;;;18.40;99.90;;;;;;4990727;28;20420;-82
2022/08/17 06:08:10;;;;;;;0.77;0.70;;;18.30;99.90;;;;;;5014832;28;20033;-81
2022/08/17 06:10:54;;;;;;;1.33;0.90;;;18.40;99.90;;;;;;5016527;28;20092;-82
2022/08/17 06:13:49;;;;;;;1.08;0.70;;;18.40;99.90;;;;;;5015775;28;20045;-81
2022/08/17 06:16:23;;;;;;;0.85;0.70;;;18.40;99.90;;;;;;4988749;28;20185;-81
2022/08/17 06:19:15;;;;;;;0.73;0.60;;;18.50;99.90;;;;;;4993045;28;20041;-81
2022/08/17 06:21:46;;;;;;;0.82;0.65;;;18.50;99.90;;;;;;4985594;28;20082;-82
2022/08/17 06:24:34;;;;;;;1.20;0.80;;;18.60;99.90;;;;;;4987436;28;20034;-82
2022/08/17 06:27:12;;;;;;;1.13;0.77;;;18.60;99.90;;;;;;5001444;28;20499;-82
2022/08/17 06:29:52;;;;;;;1.63;1.20;;;18.60;99.90;;;;;;5004088;28;20035;-82
2022/08/17 06:32:18;;;;;;;1.33;0.70;;;18.60;99.90;;;;;;5009583;28;20038;-83
2022/08/17 06:34:46;;;;;;;1.00;0.70;;;18.60;99.90;;;;;;4961857;28;20105;-82
2022/08/17 06:37:32;;;;;;;1.40;0.82;;;18.70;99.90;;;;;;4988066;28;20042;-82
2022/08/17 06:40:34;;;;;;;1.45;0.82;;;18.70;99.90;;;;;;5000073;28;20121;-82
2022/08/17 06:43:25;;;;;;;0.77;0.52;;;18.70;99.90;;;;;;4977376;28;20484;-83
2022/08/17 06:46:12;;;;;;;1.65;0.98;;;18.60;99.90;;;;;;5002874;28;20096;-81
2022/08/17 06:49:15;;;;;;;0.85;0.60;;;18.60;99.90;;;;;;5030274;28;20045;-82
2022/08/17 06:51:53;;;;;;;0.95;0.75;;;18.60;99.90;;;;;;4986502;28;20518;-82
2022/08/17 06:54:28;;;;;;;1.33;0.88;;;18.60;99.90;;;;;;5003221;28;20065;-82
2022/08/17 06:56:58;;;;;;;1.55;1.00;;;18.60;99.90;;;;;;4992454;28;20085;-83
2022/08/17 06:59:49;;;;;;;1.02;0.73;;;18.60;99.90;;;;;;5041518;28;20056;-83
2022/08/17 07:02:23;;;;;;;1.58;0.82;;;18.60;99.90;;;;;;5028531;28;20107;-82
2022/08/17 07:04:51;;;;;;;1.75;1.05;;;18.60;99.90;;;;;;5029101;28;20061;-83
2022/08/17 07:10:08;;;;;;;0.93;0.70;;;18.60;99.90;;;;;;5034482;28;20030;-84
2022/08/17 07:12:39;;;;;;;1.75;1.05;;;18.60;99.90;;;;;;5016362;28;20403;-85
2022/08/17 07:15:41;;;;;;;1.20;0.90;;;18.60;99.90;;;;;;5049464;28;20126;-82
2022/08/17 07:18:08;;;;;;;2.13;1.38;;;18.50;99.90;;;;;;4983784;28;20046;-83
2022/08/17 07:20:41;;;;;;;1.00;0.90;;;18.50;99.90;;;;;;5015632;28;20041;-83
2022/08/17 07:23:43;;;;;;;1.13;0.80;;;18.40;99.90;;;;;;5043144;28;20060;-82
2022/08/17 07:26:12;;;;;;;1.52;0.70;;;18.40;99.90;;;;;;5051512;28;20403;-83
2022/08/17 07:28:38;;;;;;;1.05;0.80;;;18.30;99.90;;;;;;4999333;28;20108;-82
2022/08/17 07:31:06;;;;;;;1.48;0.80;;;18.30;99.90;;;;;;5014399;28;20045;-84
2022/08/17 07:33:35;;;;;;;0.65;0.50;;;18.30;99.90;;;;;;5025701;28;20034;-84
2022/08/17 07:36:02;;;;;;;1.70;1.10;;;18.40;99.90;;;;;;5049662;28;20060;-85
2022/08/17 07:38:32;;;;;;;0.30;0.30;;;18.30;99.90;;;;;;4999012;28;20038;-85
2022/08/17 07:41:06;;;;;;;0.80;0.68;;;18.40;99.90;;;;;;5028110;28;20038;-86
2022/08/17 07:43:38;;;;;;;0.73;0.60;;;18.50;99.90;;;;;;5030642;28;20038;-87
2022/08/17 07:49:30;;;;;;;0.98;0.77;;;18.70;99.90;;;;;;5048741;28;20038;-85
2022/08/17 07:52:01;;;;;;;0.57;0.40;;;18.90;99.90;;;;;;5028635;28;20088;-88
2022/08/17 07:54:29;;;;;;;1.27;0.95;;;19.00;99.90;;;;;;5030669;28;20040;-85
2022/08/17 07:57:03;;;;;;;1.25;0.85;;;19.10;99.90;;;;;;5027347;28;20089;-88
2022/08/17 07:59:33;;;;;;;1.70;1.00;;;19.20;99.90;;;;;;5012974;28;20105;-88
2022/08/17 08:02:03;;;;;;;1.75;0.70;;;19.30;99.90;;;;;;5026612;28;20061;-87
2022/08/17 08:04:41;;;;;;;1.42;0.88;;;19.40;99.90;;;;;;5014552;28;20129;-84
2022/08/17 08:07:24;;;;;;;1.27;0.80;;;19.50;99.90;;;;;;5015902;28;20042;-85
2022/08/17 08:10:09;;;;;;;1.17;0.82;;;19.70;99.90;;;;;;5025113;28;20564;-87
2022/08/17 08:12:38;;;;;;;2.10;1.40;;;19.70;99.90;;;;;;5036202;28;20065;-88
2022/08/17 08:15:21;;;;;;;1.58;1.23;;;19.80;99.90;;;;;;5042486;28;20421;-88
2022/08/17 08:17:56;;;;;;;0.98;0.85;;;19.80;99.90;;;;;;5029769;28;20042;-88
2022/08/17 08:20:44;;;;;;;1.10;0.80;;;19.90;99.90;;;;;;5020236;28;20041;-88
2022/08/17 08:23:19;;;;;;;2.53;1.27;;;19.90;99.90;;;;;;5020463;28;20046;-86
2022/08/17 08:25:58;;;;;;;0.80;0.70;;;20.00;99.90;;;;;;5026251;28;20045;-88
2022/08/17 08:28:31;;;;;;;1.33;1.00;;;20.00;99.90;;;;;;5016541;28;20285;-86
2022/08/17 08:31:29;;;;;;;1.60;1.10;;;20.10;99.90;;;;;;5021854;28;20030;-86
2022/08/17 08:34:22;;;;;;;2.25;1.30;;;20.10;99.90;;;;;;5023301;28;20046;-86
2022/08/17 08:37:13;;;;;;;1.33;0.98;;;20.20;99.90;;;;;;5012734;28;20033;-87
2022/08/17 08:39:55;;;;;;;2.17;1.60;;;20.20;99.90;;;;;;5026180;28;20463;-87
2022/08/17 08:42:43;;;;;;;1.42;1.00;;;20.30;99.90;;;;;;5018877;28;20045;-88
2022/08/17 08:45:25;;;;;;;1.58;1.02;;;20.30;99.90;;;;;;5021413;28;20520;-87
2022/08/17 08:48:29;;;;;;;1.67;1.10;;;20.30;99.90;;;;;;5020428;28;20038;-88
2022/08/17 08:51:17;;;;;;;2.17;1.42;;;20.40;99.90;;;;;;5019169;28;20048;-86
2022/08/17 08:54:13;;;;;;;1.90;1.13;;;20.60;99.90;;;;;;5018273;28;20121;-87
2022/08/17 08:56:47;;;;;;;;;;;20.70;99.90;;;;;;5014840;28;20058;-86
2022/08/17 08:59:39;;;;;;;2.33;1.60;;;20.90;99.90;;;;;;5011173;28;19917;-86
2022/08/17 09:02:44;;;;;;;1.95;0.95;;;21.10;99.90;;;;;;5018617;28;20446;-86
2022/08/17 09:05:19;;;;;;;2.58;1.45;;;21.20;99.90;;;;;;5003235;28;20057;-83
2022/08/17 09:07:57;;;;;;;2.55;1.55;;;21.30;99.90;;;;;;5023431;28;20038;-92
2022/08/17 09:11:07;;;;;;;2.55;1.45;;;21.30;99.90;;;;;;5029720;28;20042;-86
2022/08/17 09:13:52;;;;;;;2.42;1.60;;;21.30;99.90;;;;;;5010561;28;20121;-87
2022/08/17 09:16:28;;;;;;;;;;;21.30;99.90;;;;;;5009952;28;20025;-85
2022/08/17 09:19:13;;;;;;;2.83;1.30;;;21.40;99.90;;;;;;5012312;28;20375;-86
2022/08/17 09:21:44;;;;;;;2.28;1.35;;;21.40;99.90;;;;;;5041328;28;20034;-85
2022/08/17 09:24:33;;;;;;;2.78;1.73;;;21.50;99.90;;;;;;5013063;28;20042;-82
2022/08/17 09:27:09;;;;;;;2.25;1.40;;;21.60;99.90;;;;;;5002114;28;20618;-80
2022/08/17 09:29:42;;;;;;;2.03;1.15;;;21.60;99.90;;;;;;5022410;28;20084;-80
2022/08/17 09:32:28;;;;;;;3.28;1.92;;;21.70;99.90;;;;;;5022579;28;20029;-81
2022/08/17 09:35:13;;;;;;;2.80;1.75;;;21.70;99.90;;;;;;5029678;28;20076;-80
2022/08/17 09:38:10;;;;;;;2.13;1.30;;;21.80;99.90;;;;;;5028475;28;20052;-81
2022/08/17 09:40:42;;;;;;;2.95;1.92;;;21.80;99.90;;;;;;5030226;28;20050;-83
2022/08/17 09:43:44;;;;;;;2.20;1.45;;;21.90;99.90;;;;;;5018585;28;20408;-81
2022/08/17 09:46:18;;;;;;;1.98;1.45;;;22.00;99.90;;;;;;4935505;28;20083;-83
2022/08/17 09:49:00;;;;;;;3.35;2.22;;;22.00;99.90;;;;;;5029227;28;20034;-80
2022/08/17 09:51:36;;;;;;;3.50;2.10;;;22.00;99.90;;;;;;5017754;28;20398;-81
2022/08/17 09:54:03;;;;;;;2.20;1.40;;;21.90;99.90;;;;;;5045082;28;20550;-80
2022/08/17 09:57:00;;;;;;;3.38;1.80;;;21.80;99.90;;;;;;5015136;28;20077;-83
2022/08/17 10:00:14;;;;;;;3.22;1.85;;;21.80;99.90;;;;;;5026389;28;20041;-81
2022/08/17 10:02:49;;;;;;;3.28;2.10;;;21.70;99.90;;;;;;5028141;28;20120;-83
2022/08/17 10:05:27;;;;;;;1.90;1.25;;;21.70;99.90;;;;;;5031325;28;20409;-80
2022/08/17 10:08:12;;;;;;;2.88;1.63;;;21.70;99.90;;;;;;5012014;28;20073;-83
2022/08/17 10:10:54;;;;;;;3.22;2.17;;;21.70;99.90;;;;;;5012822;28;20069;-83
2022/08/17 10:13:32;;;;;;;3.28;2.38;;;21.70;99.90;;;;;;5001840;28;20188;-81
2022/08/17 10:16:19;;;;;;;3.35;2.35;;;21.70;99.90;;;;;;5026999;28;20072;-79
2022/08/17 10:19:07;;;;;;;4.22;2.63;;;21.80;99.90;;;;;;5011757;28;20048;-84
2022/08/17 10:27:22;;;;;;;2.42;1.65;;;22.20;99.90;;;;;;5023443;28;20041;-84
2022/08/17 10:29:58;;;;;;;3.63;2.55;;;22.30;99.90;;;;;;5023398;28;20030;-85
2022/08/17 10:32:31;;;;;;;3.28;2.00;;;22.40;99.90;;;;;;5014032;28;20038;-81
2022/08/17 10:35:27;;;;;;;4.13;2.47;;;22.40;99.90;;;;;;5031216;28;20057;-84
2022/08/17 10:38:06;;;;;;;2.90;2.05;;;22.50;99.90;;;;;;4993204;28;20389;-81
2022/08/17 10:40:37;;;;;;;3.45;2.40;;;22.50;99.90;;;;;;4992901;28;20133;-83
2022/08/17 10:43:04;;;;;;;4.53;2.67;;;22.50;99.90;;;;;;5007447;28;20037;-83
2022/08/17 10:45:52;;;;;;;3.67;2.50;;;22.50;99.90;;;;;;5011707;28;20046;-83
2022/08/17 10:48:26;;;;;;;3.13;2.33;;;22.60;99.90;;;;;;5008411;28;20411;-80
2022/08/17 10:51:06;;;;;;;3.00;1.98;;;22.60;99.90;;;;;;5002175;28;20042;-79
2022/08/17 10:53:39;;;;;;;3.47;2.05;;;22.60;99.90;;;;;;5011429;28;20049;-80
2022/08/17 10:56:12;;;;;;;3.92;2.35;;;22.60;99.90;;;;;;5011697;28;20042;-80
2022/08/17 10:58:48;;;;;;;4.80;2.35;;;22.50;99.90;;;;;;5033267;28;20144;-82
2022/08/17 11:01:16;;;;;;;2.53;1.83;;;22.50;99.90;;;;;;5034734;28;20502;-80
2022/08/17 11:03:53;;;;;;;3.33;2.15;;;22.60;99.90;;;;;;5031335;28;20052;-80
2022/08/17 11:06:40;;;;;;;4.25;2.58;;;22.70;99.90;;;;;;5049349;28;20067;-84
2022/08/17 11:09:13;;;;;;;3.30;2.45;;;22.60;99.90;;;;;;5032357;28;20144;-84
2022/08/17 11:12:00;;;;;;;4.50;2.58;;;22.70;99.90;;;;;;5024462;28;20077;-82
2022/08/17 11:14:26;;;;;;;4.18;2.45;;;22.70;99.90;;;;;;5041891;28;20590;-83
2022/08/17 11:17:28;;;;;;;3.35;2.22;;;22.70;99.90;;;;;;5032554;28;20045;-81
2022/08/17 11:20:14;;;;;;;3.30;2.08;;;22.70;99.90;;;;;;5009068;28;20086;-82
2022/08/17 11:22:40;;;;;;;;;;;22.70;99.90;;;;;;5036298;28;20053;-85
2022/08/17 11:25:19;;;;;;;3.35;2.22;;;22.70;99.90;;;;;;5048372;28;20599;-85
2022/08/17 11:27:52;;;;;;;2.90;1.92;;;22.70;99.90;;;;;;5032004;28;20080;-82
2022/08/17 11:30:41;;;;;;;3.28;2.20;;;22.60;99.90;;;;;;5048414;28;20518;-85
2022/08/17 11:33:35;;;;;;;2.63;1.65;;;22.70;99.90;;;;;;5048215;28;20073;-85
2022/08/17 11:36:13;;;;;;;4.78;3.00;;;22.60;99.90;;;;;;5032210;28;20049;-82
2022/08/17 11:38:48;;;;;;;3.67;2.40;;;22.60;99.90;;;;;;5031776;28;20046;-82
2022/08/17 11:41:26;;;;;;;3.35;2.50;;;22.80;99.90;;;;;;5032322;28;20041;-83
2022/08/17 11:44:11;;;;;;;2.95;2.15;;;22.80;99.90;;;;;;5026358;28;20534;-85
2022/08/17 11:52:45;;;;;;;3.45;2.38;;;23.10;99.90;;;;;;5048339;28;20034;-83
2022/08/17 11:55:27;;;;;;;3.17;1.85;;;23.20;99.90;;;;;;5032344;28;20077;-83
2022/08/17 11:58:00;;;;;;;3.22;2.15;;;23.30;99.90;;;;;;5028496;28;20118;-83
2022/08/17 12:00:45;;;;;;;2.90;1.90;;;23.30;99.90;;;;;;5012230;28;20125;-83
2022/08/17 12:03:23;;;;;;;4.13;2.20;;;23.40;99.90;;;;;;5037424;28;20045;-85
2022/08/17 12:05:59;;;;;;;3.20;2.25;;;23.40;99.90;;;;;;5036520;28;20054;-86
2022/08/17 12:08:31;;;;;;;2.92;1.77;;;23.40;99.90;;;;;;5027954;28;20069;-84
2022/08/17 12:11:18;;;;;;;3.00;2.08;;;23.50;99.90;;;;;;5028128;28;20121;-85
2022/08/17 12:13:53;;;;;;;3.00;2.00;;;23.50;99.90;;;;;;5028025;28;20046;-83
2022/08/17 12:16:21;;;;;;;3.22;2.05;;;23.50;99.90;;;;;;5030372;28;20044;-82
2022/08/17 12:18:57;;;;;;;2.75;2.17;;;23.40;99.90;;;;;;5044146;28;20554;-83
2022/08/17 12:21:47;;;;;;;3.10;2.13;;;23.40;99.90;;;;;;5044825;28;20041;-85
2022/08/17 12:24:19;;;;;;;3.08;2.20;;;23.40;99.90;;;;;;5031355;28;20042;-85
2022/08/17 12:26:56;;;;;;;2.17;1.60;;;23.50;99.90;;;;;;5031559;28;20037;-83
2022/08/17 12:29:23;;;;;;;2.47;1.67;;;23.50;99.90;;;;;;5031498;28;20049;-83
2022/08/17 12:31:52;;;;;;;3.65;2.13;;;23.50;99.90;;;;;;5031576;28;20034;-86
2022/08/17 12:34:35;;;;;;;3.30;1.90;;;23.50;99.90;;;;;;5027665;28;20094;-86
2022/08/17 12:37:06;;;;;;;2.58;1.45;;;23.50;99.90;;;;;;5011635;28;20109;-86
2022/08/17 12:39:33;;;;;;;3.15;1.67;;;23.50;99.90;;;;;;5014578;28;20046;-83
2022/08/17 12:42:00;;;;;;;2.28;1.58;;;23.40;99.90;;;;;;5033717;28;20125;-83
2022/08/17 12:44:42;;;;;;;2.65;1.98;;;23.30;99.90;;;;;;4979308;28;20595;-83
2022/08/17 12:47:16;;;;;;;3.30;2.15;;;23.30;99.90;;;;;;5047421;28;20043;-82
2022/08/17 12:49:53;;;;;;;3.10;2.10;;;23.20;99.90;;;;;;5050748;28;20039;-85
2022/08/17 12:52:31;;;;;;;2.20;1.60;;;23.20;99.90;;;;;;5050933;28;20038;-83
2022/08/17 12:55:25;;;;;;;3.25;2.13;;;23.20;99.90;;;;;;5050381;28;20045;-86
2022/08/17 12:57:54;;;;;;;3.35;1.90;;;23.20;99.90;;;;;;5010639;28;20066;-83
2022/08/17 13:00:28;;;;;;;3.38;2.10;;;23.20;99.90;;;;;;5011409;28;20129;-87
2022/08/17 13:03:06;;;;;;;2.70;1.80;;;23.30;99.90;;;;;;5011056;28;20124;-86
2022/08/17 13:05:40;;;;;;;3.58;1.98;;;23.20;99.90;;;;;;5029034;28;20042;-84
2022/08/17 13:08:19;;;;;;;2.83;1.77;;;23.30;99.90;;;;;;5046601;28;20029;-83
2022/08/17 13:11:09;;;;;;;2.42;1.48;;;23.20;99.90;;;;;;5030413;28;20030;-83
2022/08/17 13:13:40;;;;;;;2.00;1.42;;;23.10;99.90;;;;;;5030550;28;20045;-85
2022/08/17 13:16:14;;;;;;;2.40;1.60;;;23.10;99.90;;;;;;5030617;28;20046;-86
2022/08/17 13:18:48;;;;;;;2.97;2.00;;;23.10;99.90;;;;;;5026761;28;20749;-83
2022/08/17 13:21:18;;;;;;;2.17;1.60;;;23.10;99.90;;;;;;5010815;28;20077;-83
2022/08/17 13:24:25;;;;;;;2.53;1.67;;;22.90;99.90;;;;;;5026120;28;20077;-82
2022/08/17 13:27:00;;;;;;;2.17;1.45;;;23.10;99.90;;;;;;4980519;28;20050;-82
2022/08/17 13:29:37;;;;;;;1.85;1.23;;;23.10;99.90;;;;;;5041354;28;20043;-85
2022/08/17 13:32:06;;;;;;;2.35;1.55;;;23.10;99.90;;;;;;5037663;28;20043;-83
2022/08/17 13:34:39;;;;;;;2.47;1.67;;;23.10;99.90;;;;;;5044928;28;20525;-83
2022/08/17 13:37:24;;;;;;;2.83;1.73;;;23.10;99.90;;;;;;5030177;28;20041;-83
2022/08/17 13:39:52;;;;;;;;;;;23.20;99.90;;;;;;5030307;28;20049;-83
2022/08/17 13:42:41;;;;;;;2.08;1.58;;;23.20;99.90;;;;;;5029957;28;19924;-86
2022/08/17 13:45:36;;;;;;;2.15;1.38;;;23.20;99.90;;;;;;5046313;28;20061;-86
2022/08/17 13:48:07;;;;;;;2.13;1.47;;;23.20;99.90;;;;;;5023980;28;20092;-86
2022/08/17 13:50:43;;;;;;;2.65;1.70;;;23.30;99.90;;;;;;5049806;28;20287;-85
2022/08/17 13:53:30;;;;;;;2.90;1.70;;;23.30;99.90;;;;;;5037222;28;20086;-85
2022/08/17 13:56:13;;;;;;;1.95;1.45;;;23.30;99.90;;;;;;5026271;28;20042;-83
2022/08/17 13:58:51;;;;;;;2.03;1.55;;;23.30;99.90;;;;;;5014258;28;20081;-83
2022/08/17 14:01:47;;;;;;;2.38;1.50;;;23.30;99.90;;;;;;5029939;28;20100;-83